createdAt,value
2022-08-28T00:01:09.300Z,18.40
2022-08-28T00:03:45.510Z,18.40
2022-08-28T00:06:21.531Z,18.40
2022-08-28T00:08:57.836Z,18.42
2022-08-28T00:11:37.052Z,18.40
2022-08-28T00:14:14.953Z,18.40
2022-08-28T00:16:52.517Z,18.40
2022-08-28T00:19:28.605Z,18.40
2022-08-28T00:22:05.170Z,18.40
2022-08-28T00:24:43.031Z,18.40
2022-08-28T00:27:36.588Z,18.40
2022-08-28T00:30:14.950Z,18.32
2022-08-28T00:32:51.764Z,18.30
2022-08-28T00:35:28.616Z,18.30
2022-08-28T00:38:06.087Z,18.30
2022-08-28T00:40:45.253Z,18.30
2022-08-28T00:43:40.099Z,18.30
2022-08-28T00:46:21.216Z,18.30
2022-08-28T00:48:57.298Z,18.30
2022-08-28T00:51:51.684Z,18.30
2022-08-28T00:54:29.430Z,18.30
2022-08-28T00:57:10.921Z,18.30
2022-08-28T00:59:47.837Z,18.30
2022-08-28T01:02:27.986Z,18.30
2022-08-28T01:05:04.191Z,18.24
2022-08-28T01:07:41.263Z,18.22
2022-08-28T01:10:25.895Z,18.20
2022-08-28T01:13:03.884Z,18.20
2022-08-28T01:15:42.435Z,18.20
2022-08-28T01:18:20.347Z,18.20
2022-08-28T01:21:08.245Z,18.14
2022-08-28T01:24:00.604Z,18.10
2022-08-28T01:26:37.604Z,18.10
2022-08-28T01:29:15.083Z,18.10
2022-08-28T01:31:51.391Z,18.10
2022-08-28T01:34:28.062Z,18.12
2022-08-28T01:37:05.315Z,18.10
2022-08-28T01:39:41.205Z,18.10
2022-08-28T01:42:17.400Z,18.10
2022-08-28T01:44:54.433Z,18.10
2022-08-28T01:47:30.636Z,18.10
2022-08-28T01:50:08.452Z,18.10
2022-08-28T01:52:45.372Z,18.10
2022-08-28T01:55:21.899Z,18.10
2022-08-28T01:57:59.232Z,18.10
2022-08-28T02:00:36.495Z,18.10
2022-08-28T02:03:13.784Z,18.10
2022-08-28T02:05:49.885Z,18.10
2022-08-28T02:08:26.041Z,18.08
2022-08-28T02:11:02.242Z,18.00
2022-08-28T02:13:40.617Z,18.00
2022-08-28T02:16:16.754Z,18.00
2022-08-28T02:18:53.198Z,18.00
2022-08-28T02:21:29.687Z,18.00
2022-08-28T02:24:54.221Z,17.96
2022-08-28T02:27:30.221Z,17.90
2022-08-28T02:30:08.083Z,17.90
2022-08-28T02:32:45.352Z,17.90
2022-08-28T02:35:23.816Z,17.86
2022-08-28T02:38:00.588Z,17.80
2022-08-28T02:40:38.282Z,17.80
2022-08-28T02:43:14.708Z,17.80
2022-08-28T02:45:50.687Z,17.80
2022-08-28T02:48:28.631Z,17.80
2022-08-28T02:51:10.001Z,17.80
2022-08-28T02:53:46.322Z,17.70
2022-08-28T02:56:23.035Z,17.70
2022-08-28T02:58:59.004Z,17.70
2022-08-28T03:01:35.352Z,17.70
2022-08-28T03:04:11.701Z,17.60
2022-08-28T03:06:47.614Z,17.60
2022-08-28T03:09:23.892Z,17.60
2022-08-28T03:11:59.756Z,17.50
2022-08-28T03:14:36.716Z,17.50
2022-08-28T03:17:12.750Z,17.50
2022-08-28T03:19:50.206Z,17.50
2022-08-28T03:22:40.398Z,17.50
2022-08-28T03:25:17.810Z,17.40
2022-08-28T03:27:54.085Z,17.40
2022-08-28T03:30:30.284Z,17.40
2022-08-28T03:33:06.606Z,17.40
2022-08-28T03:35:42.909Z,17.40
2022-08-28T03:38:21.959Z,17.30
2022-08-28T03:40:58.265Z,17.30
2022-08-28T03:43:34.389Z,17.30
2022-08-28T03:46:16.171Z,17.30
2022-08-28T03:48:53.495Z,17.30
2022-08-28T03:51:33.733Z,17.30
2022-08-28T03:54:09.957Z,17.30
2022-08-28T03:56:47.523Z,17.30
2022-08-28T03:59:26.614Z,17.30
2022-08-28T04:02:08.032Z,17.30
2022-08-28T04:04:44.018Z,17.30
2022-08-28T04:07:22.511Z,17.30
2022-08-28T04:09:58.982Z,17.30
2022-08-28T04:12:36.230Z,17.30
2022-08-28T04:15:15.248Z,17.40
2022-08-28T04:17:51.370Z,17.40
2022-08-28T04:20:27.511Z,17.42
2022-08-28T04:23:04.095Z,17.50
2022-08-28T04:25:42.382Z,17.60
2022-08-28T04:28:18.464Z,17.60
2022-08-28T04:30:56.511Z,17.70
2022-08-28T04:33:33.364Z,17.80
2022-08-28T04:36:13.745Z,17.90
2022-08-28T04:38:50.906Z,18.06
2022-08-28T04:41:27.802Z,18.30
2022-08-28T04:44:04.175Z,18.52
2022-08-28T04:46:40.358Z,18.80
2022-08-28T04:49:16.977Z,19.16
2022-08-28T04:51:53.156Z,19.54
2022-08-28T04:54:29.294Z,19.80
2022-08-28T04:57:06.576Z,19.94
2022-08-28T04:59:45.166Z,20.10
2022-08-28T05:02:21.213Z,20.16
2022-08-28T05:04:57.295Z,20.30
2022-08-28T05:07:33.425Z,20.40
2022-08-28T05:10:11.089Z,20.50
2022-08-28T05:12:47.163Z,20.72
2022-08-28T05:15:23.571Z,21.00
2022-08-28T05:17:59.694Z,21.18
2022-08-28T05:20:40.599Z,21.20
2022-08-28T05:23:19.448Z,21.20
2022-08-28T05:26:01.837Z,21.16
2022-08-28T05:28:37.833Z,21.20
2022-08-28T05:31:21.103Z,21.30
2022-08-28T05:33:57.499Z,21.40
2022-08-28T05:36:38.295Z,21.52
2022-08-28T05:39:17.709Z,21.60
2022-08-28T05:41:54.150Z,21.70
2022-08-28T05:44:30.266Z,21.80
2022-08-28T05:47:06.416Z,22.04
2022-08-28T05:49:42.416Z,22.60
2022-08-28T05:52:18.435Z,23.22
2022-08-28T05:54:54.549Z,23.90
2022-08-28T05:57:32.036Z,24.62
2022-08-28T06:00:13.007Z,25.10
2022-08-28T06:02:48.990Z,25.10
2022-08-28T06:05:26.534Z,25.00
2022-08-28T06:08:02.512Z,24.90
2022-08-28T06:10:44.177Z,24.80
2022-08-28T06:13:21.715Z,24.60
2022-08-28T06:15:58.547Z,24.40
2022-08-28T06:18:34.830Z,24.20
2022-08-28T06:21:11.335Z,24.00
2022-08-28T06:23:47.521Z,23.90
2022-08-28T06:26:23.861Z,23.70
2022-08-28T06:29:05.920Z,23.52
2022-08-28T06:31:43.144Z,23.38
2022-08-28T06:34:19.482Z,23.22
2022-08-28T06:36:55.877Z,23.20
2022-08-28T06:39:32.023Z,23.10
2022-08-28T06:42:08.518Z,23.10
2022-08-28T06:44:44.556Z,23.10
2022-08-28T06:47:20.725Z,23.10
2022-08-28T06:49:57.036Z,23.18
2022-08-28T06:52:33.469Z,23.30
2022-08-28T06:55:12.896Z,23.40
2022-08-28T06:57:48.846Z,23.52
2022-08-28T07:00:25.377Z,23.66
2022-08-28T07:03:02.674Z,24.06
2022-08-28T07:05:38.755Z,24.30
2022-08-28T07:08:14.780Z,24.70
2022-08-28T07:10:50.852Z,24.90
2022-08-28T07:13:32.115Z,25.46
2022-08-28T07:16:10.632Z,25.90
2022-08-28T07:18:47.885Z,26.22
2022-08-28T07:21:24.472Z,26.50
2022-08-28T07:24:00.866Z,26.50
2022-08-28T07:26:37.779Z,26.40
2022-08-28T07:29:14.618Z,26.50
2022-08-28T07:31:55.993Z,26.50
2022-08-28T07:34:32.421Z,26.60
2022-08-28T07:37:15.127Z,26.60
2022-08-28T07:39:52.298Z,26.60
2022-08-28T07:42:46.134Z,26.82
2022-08-28T07:45:22.422Z,27.30
2022-08-28T07:47:58.968Z,27.78
2022-08-28T07:50:35.641Z,28.12
2022-08-28T07:53:11.598Z,28.50
2022-08-28T07:55:47.591Z,28.80
2022-08-28T07:58:25.546Z,29.00
2022-08-28T08:01:02.410Z,29.20
2022-08-28T08:03:38.974Z,29.48
2022-08-28T08:06:16.193Z,29.80
2022-08-28T08:08:52.597Z,29.90
2022-08-28T08:11:32.492Z,29.96
2022-08-28T08:14:09.076Z,30.00
2022-08-28T08:16:48.567Z,30.10
2022-08-28T08:19:24.879Z,30.20
2022-08-28T08:22:01.432Z,30.36
2022-08-28T08:24:37.769Z,30.44
2022-08-28T08:27:13.713Z,30.40
2022-08-28T08:29:51.131Z,30.50
2022-08-28T08:32:27.547Z,30.50
2022-08-28T08:35:03.688Z,30.46
2022-08-28T08:37:40.054Z,30.32
2022-08-28T08:40:20.267Z,30.20
2022-08-28T08:42:58.059Z,30.40
2022-08-28T08:45:35.416Z,30.30
2022-08-28T08:48:27.833Z,30.20
2022-08-28T08:51:21.687Z,30.20
2022-08-28T08:54:11.706Z,30.30
2022-08-28T08:56:50.307Z,30.40
2022-08-28T08:59:30.298Z,30.40
2022-08-28T09:02:16.188Z,30.16
2022-08-28T09:05:00.861Z,29.80
2022-08-28T09:07:52.650Z,29.80
2022-08-28T09:10:44.553Z,29.60
2022-08-28T09:13:33.493Z,29.30
2022-08-28T09:16:18.776Z,28.90
2022-08-28T09:18:57.627Z,28.60
2022-08-28T09:21:43.455Z,28.40
2022-08-28T09:24:28.505Z,28.20
2022-08-28T09:27:14.216Z,28.10
2022-08-28T09:30:07.545Z,27.90
2022-08-28T09:32:58.107Z,27.80
2022-08-28T09:35:38.414Z,27.70
2022-08-28T09:38:27.694Z,27.60
2022-08-28T09:41:32.540Z,27.50
2022-08-28T09:44:08.717Z,27.50
2022-08-28T09:46:50.366Z,27.50
2022-08-28T09:49:33.261Z,27.60
2022-08-28T09:52:28.037Z,27.70
2022-08-28T09:55:04.012Z,27.72
2022-08-28T09:57:42.814Z,27.90
2022-08-28T10:00:19.881Z,27.96
2022-08-28T10:03:07.752Z,28.10
2022-08-28T10:05:56.399Z,28.40
2022-08-28T10:08:59.154Z,28.68
2022-08-28T10:11:52.141Z,28.80
2022-08-28T10:14:50.150Z,28.80
2022-08-28T10:17:48.627Z,28.60
2022-08-28T10:20:40.614Z,28.60
2022-08-28T10:23:31.839Z,28.54
2022-08-28T10:26:37.545Z,28.50
2022-08-28T10:29:41.136Z,28.40
2022-08-28T10:32:56.366Z,28.30
2022-08-28T10:35:49.978Z,28.20
2022-08-28T10:38:41.201Z,28.00
2022-08-28T10:41:26.662Z,27.90
2022-08-28T10:44:06.668Z,27.82
2022-08-28T10:46:51.474Z,27.80
2022-08-28T10:49:39.019Z,27.80
2022-08-28T10:52:20.975Z,27.80
2022-08-28T10:55:05.532Z,27.70
2022-08-28T10:57:50.648Z,27.60
2022-08-28T11:00:31.044Z,27.50
2022-08-28T11:03:33.448Z,27.40
2022-08-28T11:06:19.603Z,27.40
2022-08-28T11:09:21.571Z,27.40
2022-08-28T11:12:02.315Z,27.40
2022-08-28T11:14:46.376Z,27.40
2022-08-28T11:17:44.529Z,27.40
2022-08-28T11:20:25.076Z,27.40
2022-08-28T11:23:14.149Z,27.40
2022-08-28T11:25:59.024Z,27.50
2022-08-28T11:28:49.922Z,27.50
2022-08-28T11:31:44.144Z,27.50
2022-08-28T11:35:01.585Z,27.50
2022-08-28T11:37:47.802Z,27.40
2022-08-28T11:40:58.004Z,27.40
2022-08-28T11:43:46.688Z,27.40
2022-08-28T11:46:37.029Z,27.42
2022-08-28T11:49:48.245Z,27.50
2022-08-28T11:53:22.061Z,27.58
2022-08-28T11:56:36.020Z,27.60
2022-08-28T12:00:02.768Z,27.50
2022-08-28T12:03:15.474Z,27.48
2022-08-28T12:06:00.744Z,27.50
2022-08-28T12:09:07.917Z,27.50
2022-08-28T12:12:06.849Z,27.50
2022-08-28T12:15:44.086Z,27.60
2022-08-28T12:19:03.647Z,27.60
2022-08-28T12:21:42.830Z,27.70
2022-08-28T12:24:28.822Z,27.70
2022-08-28T12:27:09.256Z,27.80
2022-08-28T12:29:58.729Z,27.80
2022-08-28T12:32:44.527Z,27.90
2022-08-28T12:35:29.585Z,27.92
2022-08-28T12:38:09.404Z,28.00
2022-08-28T12:40:54.985Z,28.00
2022-08-28T12:43:45.276Z,28.10
2022-08-28T12:46:31.473Z,28.10
2022-08-28T12:49:30.189Z,28.08
2022-08-28T12:52:21.273Z,27.92
2022-08-28T12:54:58.331Z,27.82
2022-08-28T12:57:34.903Z,27.70
2022-08-28T13:00:21.724Z,27.60
2022-08-28T13:03:00.873Z,27.60
2022-08-28T13:05:41.255Z,27.60
2022-08-28T13:08:24.757Z,27.60
2022-08-28T13:11:01.970Z,27.68
2022-08-28T13:13:46.930Z,27.60
2022-08-28T13:16:43.851Z,27.50
2022-08-28T13:19:32.642Z,27.40
2022-08-28T13:22:31.525Z,27.30
2022-08-28T13:25:12.062Z,27.30
2022-08-28T13:28:03.019Z,27.30
2022-08-28T13:30:39.658Z,27.20
2022-08-28T13:33:27.425Z,27.20
2022-08-28T13:36:27.316Z,27.10
2022-08-28T13:39:03.255Z,27.20
2022-08-28T13:41:39.565Z,27.20
2022-08-28T13:44:32.180Z,27.20
2022-08-28T13:47:10.615Z,27.20
2022-08-28T13:49:46.770Z,27.34
2022-08-28T13:52:23.120Z,27.50
2022-08-28T13:55:00.826Z,27.70
2022-08-28T13:57:37.930Z,27.70
2022-08-28T14:00:17.901Z,27.72
2022-08-28T14:03:12.500Z,27.80
2022-08-28T14:05:48.651Z,27.90
2022-08-28T14:08:25.668Z,27.90
2022-08-28T14:11:01.853Z,27.90
2022-08-28T14:13:38.211Z,27.80
2022-08-28T14:16:16.870Z,27.70
2022-08-28T14:18:53.980Z,27.70
2022-08-28T14:21:30.238Z,27.60
2022-08-28T14:24:08.003Z,27.60
2022-08-28T14:26:45.811Z,27.60
2022-08-28T14:29:23.718Z,27.60
2022-08-28T14:32:01.877Z,27.60
2022-08-28T14:34:38.623Z,27.50
2022-08-28T14:37:14.731Z,27.50
2022-08-28T14:39:52.122Z,27.60
2022-08-28T14:42:28.249Z,27.50
2022-08-28T14:45:04.782Z,27.50
2022-08-28T14:47:41.111Z,27.40
2022-08-28T14:50:17.520Z,27.30
2022-08-28T14:52:53.347Z,27.20
2022-08-28T14:55:29.385Z,27.10
2022-08-28T14:58:05.217Z,27.00
2022-08-28T15:00:47.554Z,26.90
2022-08-28T15:03:24.574Z,26.80
2022-08-28T15:06:09.822Z,26.70
2022-08-28T15:08:46.710Z,26.60
2022-08-28T15:11:27.522Z,26.50
2022-08-28T15:14:03.506Z,26.40
2022-08-28T15:16:43.448Z,26.30
2022-08-28T15:19:23.372Z,26.20
2022-08-28T15:22:02.183Z,26.10
2022-08-28T15:24:38.275Z,26.06
2022-08-28T15:27:14.200Z,25.96
2022-08-28T15:29:50.976Z,25.80
2022-08-28T15:32:27.635Z,25.50
2022-08-28T15:35:03.579Z,25.12
2022-08-28T15:37:39.651Z,24.70
2022-08-28T15:40:34.081Z,24.30
2022-08-28T15:43:10.303Z,24.10
2022-08-28T15:45:46.899Z,23.90
2022-08-28T15:48:22.894Z,23.64
2022-08-28T15:50:58.968Z,23.54
2022-08-28T15:53:36.285Z,23.32
2022-08-28T15:56:13.613Z,23.10
2022-08-28T15:58:49.625Z,22.82
2022-08-28T16:01:25.990Z,22.58
2022-08-28T16:04:01.912Z,22.50
2022-08-28T16:06:39.183Z,22.60
2022-08-28T16:09:15.836Z,22.60
2022-08-28T16:11:51.871Z,22.42
2022-08-28T16:14:28.261Z,22.28
2022-08-28T16:17:05.865Z,22.10
2022-08-28T16:19:47.335Z,22.00
2022-08-28T16:22:25.751Z,21.90
2022-08-28T16:25:01.623Z,21.80
2022-08-28T16:27:37.944Z,21.70
2022-08-28T16:30:19.407Z,21.70
2022-08-28T16:32:59.829Z,21.60
2022-08-28T16:35:38.874Z,21.60
2022-08-28T16:38:18.982Z,21.60
2022-08-28T16:40:54.934Z,21.60
2022-08-28T16:43:31.155Z,21.52
2022-08-28T16:46:12.505Z,21.50
2022-08-28T16:48:49.650Z,21.40
2022-08-28T16:51:27.164Z,21.30
2022-08-28T16:54:03.253Z,21.30
2022-08-28T16:56:40.190Z,21.20
2022-08-28T16:59:20.559Z,21.30
2022-08-28T17:02:00.507Z,21.20
2022-08-28T17:04:36.643Z,21.20
2022-08-28T17:07:12.755Z,21.20
2022-08-28T17:09:49.281Z,21.20
2022-08-28T17:12:25.636Z,21.20
2022-08-28T17:15:02.758Z,21.20
2022-08-28T17:17:39.194Z,21.26
2022-08-28T17:20:35.687Z,21.30
2022-08-28T17:23:11.907Z,21.24
2022-08-28T17:25:48.655Z,21.20
2022-08-28T17:28:24.553Z,21.20
2022-08-28T17:31:01.565Z,21.20
2022-08-28T17:33:38.714Z,21.20
2022-08-28T17:36:30.753Z,21.20
2022-08-28T17:39:16.426Z,21.30
2022-08-28T17:41:52.283Z,21.30
2022-08-28T17:44:28.328Z,21.40
2022-08-28T17:47:04.717Z,21.32
2022-08-28T17:49:41.512Z,21.30
2022-08-28T17:52:17.799Z,21.30
2022-08-28T17:54:53.903Z,21.20
2022-08-28T17:57:31.604Z,21.20
2022-08-28T18:00:14.282Z,21.20
2022-08-28T18:02:53.805Z,21.20
2022-08-28T18:05:31.258Z,21.20
2022-08-28T18:08:08.499Z,21.20
2022-08-28T18:10:45.044Z,21.10
2022-08-28T18:13:21.258Z,21.00
2022-08-28T18:15:58.817Z,21.00
2022-08-28T18:18:36.606Z,21.00
2022-08-28T18:21:14.195Z,21.00
2022-08-28T18:23:50.391Z,21.00
2022-08-28T18:26:26.417Z,21.00
2022-08-28T18:29:02.425Z,21.00
2022-08-28T18:31:39.716Z,20.92
2022-08-28T18:34:16.560Z,20.90
2022-08-28T18:36:51.676Z,20.90
2022-08-28T18:39:29.642Z,20.90
2022-08-28T18:42:06.984Z,20.90
2022-08-28T18:44:43.062Z,20.80
2022-08-28T18:47:19.062Z,20.90
2022-08-28T18:49:55.145Z,20.80
2022-08-28T18:52:31.646Z,20.80
2022-08-28T18:55:10.721Z,20.76
2022-08-28T18:57:47.301Z,20.80
2022-08-28T19:00:24.615Z,20.80
2022-08-28T19:03:01.427Z,20.70
2022-08-28T19:05:40.137Z,20.70
2022-08-28T19:08:16.670Z,20.62
2022-08-28T19:10:52.844Z,20.50
2022-08-28T19:13:28.835Z,20.30
2022-08-28T19:16:05.902Z,20.20
2022-08-28T19:18:42.775Z,20.10
2022-08-28T19:21:20.888Z,20.04
2022-08-28T19:23:58.708Z,20.00
2022-08-28T19:26:36.589Z,19.90
2022-08-28T19:29:13.924Z,19.80
2022-08-28T19:31:52.414Z,19.70
2022-08-28T19:34:29.977Z,19.68
2022-08-28T19:37:06.824Z,19.60
2022-08-28T19:39:42.927Z,19.50
2022-08-28T19:42:32.314Z,19.42
2022-08-28T19:45:13.262Z,19.40
2022-08-28T19:47:49.566Z,19.30
2022-08-28T19:50:26.983Z,19.22
2022-08-28T19:53:02.924Z,19.20
2022-08-28T19:55:39.119Z,19.10
2022-08-28T19:58:15.540Z,19.10
2022-08-28T20:00:52.858Z,19.06
2022-08-28T20:03:29.133Z,19.00
2022-08-28T20:06:07.958Z,19.00
2022-08-28T20:08:44.538Z,18.90
2022-08-28T20:11:30.097Z,18.90
2022-08-28T20:14:09.930Z,19.00
2022-08-28T20:16:51.142Z,19.10
2022-08-28T20:19:28.039Z,19.24
2022-08-28T20:22:04.614Z,19.40
2022-08-28T20:24:42.169Z,19.60
2022-08-28T20:27:18.200Z,19.70
2022-08-28T20:29:54.507Z,19.70
2022-08-28T20:32:32.270Z,19.80
2022-08-28T20:35:13.447Z,20.00
2022-08-28T20:37:49.790Z,20.08
2022-08-28T20:40:26.490Z,20.10
2022-08-28T20:43:04.476Z,20.20
2022-08-28T20:45:40.354Z,20.30
2022-08-28T20:48:16.414Z,20.30
2022-08-28T20:50:52.363Z,20.30
2022-08-28T20:53:37.793Z,20.30
2022-08-28T20:56:15.736Z,20.24
2022-08-28T20:58:51.715Z,20.20
2022-08-28T21:01:27.777Z,20.00
2022-08-28T21:04:04.574Z,19.90
2022-08-28T21:06:40.601Z,19.86
2022-08-28T21:09:18.336Z,19.90
2022-08-28T21:11:54.761Z,20.00
2022-08-28T21:14:30.932Z,20.10
2022-08-28T21:17:07.406Z,20.10
2022-08-28T21:19:44.172Z,20.02
2022-08-28T21:22:23.701Z,20.00
2022-08-28T21:24:59.858Z,20.20
2022-08-28T21:27:36.630Z,20.30
2022-08-28T21:30:18.646Z,20.28
2022-08-28T21:32:54.707Z,20.20
2022-08-28T21:35:30.663Z,20.30
2022-08-28T21:38:06.537Z,20.40
2022-08-28T21:40:44.533Z,20.44
2022-08-28T21:43:21.100Z,20.52
2022-08-28T21:46:07.259Z,20.50
2022-08-28T21:48:44.619Z,20.58
2022-08-28T21:51:22.215Z,20.50
2022-08-28T21:53:59.892Z,20.30
2022-08-28T21:56:35.943Z,20.20
2022-08-28T21:59:11.789Z,20.00
2022-08-28T22:01:48.309Z,19.90
2022-08-28T22:04:24.187Z,20.00
2022-08-28T22:07:00.358Z,20.20
2022-08-28T22:09:36.292Z,20.02
2022-08-28T22:12:13.337Z,19.90
2022-08-28T22:14:49.305Z,19.80
2022-08-28T22:17:25.388Z,19.80
2022-08-28T22:20:01.296Z,19.70
2022-08-28T22:22:51.341Z,19.70
2022-08-28T22:25:28.098Z,19.60
2022-08-28T22:28:05.403Z,19.60
2022-08-28T22:30:41.615Z,19.60
2022-08-28T22:33:18.143Z,19.60
2022-08-28T22:35:56.653Z,19.50
2022-08-28T22:38:32.943Z,19.50
2022-08-28T22:41:11.154Z,19.50
2022-08-28T22:43:49.835Z,19.50
2022-08-28T22:46:25.876Z,19.50
2022-08-28T22:49:02.036Z,19.44
2022-08-28T22:51:39.112Z,19.40
2022-08-28T22:54:15.162Z,19.40
2022-08-28T22:56:51.147Z,19.40
2022-08-28T22:59:28.150Z,19.40
2022-08-28T23:02:05.372Z,19.40
2022-08-28T23:04:41.639Z,19.30
2022-08-28T23:07:17.592Z,19.30
2022-08-28T23:09:53.717Z,19.30
2022-08-28T23:12:29.910Z,19.30
2022-08-28T23:15:08.058Z,19.30
2022-08-28T23:17:44.365Z,19.30
2022-08-28T23:20:26.713Z,19.30
2022-08-28T23:23:03.116Z,19.30
2022-08-28T23:25:39.125Z,19.30
2022-08-28T23:28:16.060Z,19.30
2022-08-28T23:30:52.113Z,19.30
2022-08-28T23:33:28.735Z,19.30
2022-08-28T23:36:05.782Z,19.30
2022-08-28T23:38:44.021Z,19.30
2022-08-28T23:41:20.006Z,19.30
2022-08-28T23:43:56.746Z,19.30
2022-08-28T23:46:33.722Z,19.30
2022-08-28T23:49:09.914Z,19.30
2022-08-28T23:51:45.878Z,19.30
2022-08-28T23:54:22.607Z,19.30
2022-08-28T23:56:58.685Z,19.30
2022-08-28T23:59:35.524Z,19.30
